sensor_id;sensor_type;location;lat;lon;timestamp;temperature;humidity
52016;DHT22;38032;53.326;6.472;2022-09-25T00:01:20;12.80;99.90
52016;DHT22;38032;53.326;6.472;2022-09-25T00:03:46;12.80;99.90
52016;DHT22;38032;53.326;6.472;2022-09-25T00:06:16;12.80;99.90
52016;DHT22;38032;53.326;6.472;2022-09-25T00:08:42;12.80;99.90
52016;DHT22;38032;53.326;6.472;2022-09-25T00:11:12;12.80;99.90
52016;DHT22;38032;53.326;6.472;2022-09-25T00:13:39;12.80;99.90
52016;DHT22;38032;53.326;6.472;2022-09-25T00:16:07;12.80;99.90
52016;DHT22;38032;53.326;6.472;2022-09-25T00:18:33;12.80;99.90
52016;DHT22;38032;53.326;6.472;2022-09-25T00:21:18;12.80;99.90
52016;DHT22;38032;53.326;6.472;2022-09-25T00:23:44;12.80;99.90
52016;DHT22;38032;53.326;6.472;2022-09-25T00:26:12;12.70;99.90
52016;DHT22;38032;53.326;6.472;2022-09-25T00:28:38;12.70;99.90
52016;DHT22;38032;53.326;6.472;2022-09-25T00:31:06;12.80;99.90
52016;DHT22;38032;53.326;6.472;2022-09-25T00:33:33;12.70;99.90
52016;DHT22;38032;53.326;6.472;2022-09-25T00:36:05;12.80;99.90
52016;DHT22;38032;53.326;6.472;2022-09-25T00:38:32;12.70;99.90
52016;DHT22;38032;53.326;6.472;2022-09-25T00:40:59;12.70;99.90
52016;DHT22;38032;53.326;6.472;2022-09-25T00:43:38;12.70;99.90
52016;DHT22;38032;53.326;6.472;2022-09-25T00:46:08;12.70;99.90
52016;DHT22;38032;53.326;6.472;2022-09-25T00:48:36;12.70;99.90
52016;DHT22;38032;53.326;6.472;2022-09-25T00:51:02;12.70;99.90
52016;DHT22;38032;53.326;6.472;2022-09-25T00:53:33;12.70;99.90
52016;DHT22;38032;53.326;6.472;2022-09-25T00:56:02;12.70;99.90
52016;DHT22;38032;53.326;6.472;2022-09-25T00:58:30;12.60;99.90
52016;DHT22;38032;53.326;6.472;2022-09-25T01:00:57;12.60;99.90
52016;DHT22;38032;53.326;6.472;2022-09-25T01:03:24;12.60;99.90
52016;DHT22;38032;53.326;6.472;2022-09-25T01:05:52;12.70;99.90
52016;DHT22;38032;53.326;6.472;2022-09-25T01:08:22;12.60;99.90
52016;DHT22;38032;53.326;6.472;2022-09-25T01:10:49;12.70;99.90
52016;DHT22;38032;53.326;6.472;2022-09-25T01:13:15;12.60;99.90
52016;DHT22;38032;53.326;6.472;2022-09-25T01:26:35;12.70;99.90
52016;DHT22;38032;53.326;6.472;2022-09-25T01:29:18;12.60;99.90
52016;DHT22;38032;53.326;6.472;2022-09-25T01:34:33;12.60;99.90
52016;DHT22;38032;53.326;6.472;2022-09-25T01:37:19;12.60;99.90
52016;DHT22;38032;53.326;6.472;2022-09-25T01:39:56;12.60;99.90
52016;DHT22;38032;53.326;6.472;2022-09-25T01:42:31;12.60;99.90
52016;DHT22;38032;53.326;6.472;2022-09-25T01:45:03;12.60;99.90
52016;DHT22;38032;53.326;6.472;2022-09-25T01:47:34;12.50;99.90
52016;DHT22;38032;53.326;6.472;2022-09-25T01:50:10;12.50;99.90
52016;DHT22;38032;53.326;6.472;2022-09-25T01:52:40;12.50;99.90
52016;DHT22;38032;53.326;6.472;2022-09-25T01:55:15;12.50;99.90
52016;DHT22;38032;53.326;6.472;2022-09-25T01:57:48;12.40;99.90
52016;DHT22;38032;53.326;6.472;2022-09-25T02:00:21;12.50;99.90
52016;DHT22;38032;53.326;6.472;2022-09-25T02:02:55;12.50;99.90
52016;DHT22;38032;53.326;6.472;2022-09-25T02:05:28;12.50;99.90
52016;DHT22;38032;53.326;6.472;2022-09-25T02:08:04;12.50;99.90
52016;DHT22;38032;53.326;6.472;2022-09-25T02:10:35;12.40;99.90
52016;DHT22;38032;53.326;6.472;2022-09-25T02:13:08;12.40;99.90
52016;DHT22;38032;53.326;6.472;2022-09-25T02:15:40;12.40;99.90
52016;DHT22;38032;53.326;6.472;2022-09-25T02:18:11;12.40;99.90
52016;DHT22;38032;53.326;6.472;2022-09-25T02:21:12;12.50;99.90
52016;DHT22;38032;53.326;6.472;2022-09-25T02:23:43;12.40;99.90
52016;DHT22;38032;53.326;6.472;2022-09-25T02:26:17;12.40;99.90
52016;DHT22;38032;53.326;6.472;2022-09-25T02:28:46;12.40;99.90
52016;DHT22;38032;53.326;6.472;2022-09-25T02:31:14;12.40;99.90
52016;DHT22;38032;53.326;6.472;2022-09-25T02:33:41;12.40;99.90
52016;DHT22;38032;53.326;6.472;2022-09-25T02:36:16;12.40;99.90
52016;DHT22;38032;53.326;6.472;2022-09-25T02:38:44;12.40;99.90
52016;DHT22;38032;53.326;6.472;2022-09-25T02:41:18;12.40;99.90
52016;DHT22;38032;53.326;6.472;2022-09-25T02:43:52;12.40;99.90
52016;DHT22;38032;53.326;6.472;2022-09-25T02:46:35;12.40;99.90
52016;DHT22;38032;53.326;6.472;2022-09-25T02:49:15;12.30;99.90
52016;DHT22;38032;53.326;6.472;2022-09-25T02:54:44;12.30;99.90
52016;DHT22;38032;53.326;6.472;2022-09-25T02:57:17;12.30;99.90
52016;DHT22;38032;53.326;6.472;2022-09-25T02:59:49;12.40;99.90
52016;DHT22;38032;53.326;6.472;2022-09-25T03:02:17;12.40;99.90
52016;DHT22;38032;53.326;6.472;2022-09-25T03:04:45;12.40;99.90
52016;DHT22;38032;53.326;6.472;2022-09-25T03:07:13;12.40;99.90
52016;DHT22;38032;53.326;6.472;2022-09-25T03:09:41;12.40;99.90
52016;DHT22;38032;53.326;6.472;2022-09-25T03:12:08;12.40;99.90
52016;DHT22;38032;53.326;6.472;2022-09-25T03:14:34;12.40;99.90
52016;DHT22;38032;53.326;6.472;2022-09-25T03:17:01;12.40;99.90
52016;DHT22;38032;53.326;6.472;2022-09-25T03:19:29;12.40;99.90
52016;DHT22;38032;53.326;6.472;2022-09-25T03:21:56;12.40;99.90
52016;DHT22;38032;53.326;6.472;2022-09-25T03:24:22;12.40;99.90
52016;DHT22;38032;53.326;6.472;2022-09-25T03:26:48;12.40;99.90
52016;DHT22;38032;53.326;6.472;2022-09-25T03:29:14;12.30;99.90
52016;DHT22;38032;53.326;6.472;2022-09-25T03:31:42;12.40;99.90
52016;DHT22;38032;53.326;6.472;2022-09-25T03:34:11;12.30;99.90
52016;DHT22;38032;53.326;6.472;2022-09-25T03:36:38;12.30;99.90
52016;DHT22;38032;53.326;6.472;2022-09-25T03:39:04;12.30;99.90
52016;DHT22;38032;53.326;6.472;2022-09-25T03:41:31;12.30;99.90
52016;DHT22;38032;53.326;6.472;2022-09-25T03:43:58;12.30;99.90
52016;DHT22;38032;53.326;6.472;2022-09-25T03:46:29;12.20;99.90
52016;DHT22;38032;53.326;6.472;2022-09-25T03:48:55;12.20;99.90
52016;DHT22;38032;53.326;6.472;2022-09-25T03:51:23;12.20;99.90
52016;DHT22;38032;53.326;6.472;2022-09-25T03:53:50;12.20;99.90
52016;DHT22;38032;53.326;6.472;2022-09-25T03:56:18;12.20;99.90
52016;DHT22;38032;53.326;6.472;2022-09-25T03:58:45;12.20;99.90
52016;DHT22;38032;53.326;6.472;2022-09-25T04:01:13;12.20;99.90
52016;DHT22;38032;53.326;6.472;2022-09-25T04:03:39;12.10;99.90
52016;DHT22;38032;53.326;6.472;2022-09-25T04:06:07;12.10;99.90
52016;DHT22;38032;53.326;6.472;2022-09-25T04:08:34;12.10;99.90
52016;DHT22;38032;53.326;6.472;2022-09-25T04:11:01;12.10;99.90
52016;DHT22;38032;53.326;6.472;2022-09-25T04:13:30;12.10;99.90
52016;DHT22;38032;53.326;6.472;2022-09-25T04:15:57;12.10;99.90
52016;DHT22;38032;53.326;6.472;2022-09-25T04:18:24;12.10;99.90
52016;DHT22;38032;53.326;6.472;2022-09-25T04:20:50;12.10;99.90
52016;DHT22;38032;53.326;6.472;2022-09-25T04:23:16;12.10;99.90
52016;DHT22;38032;53.326;6.472;2022-09-25T04:25:42;12.10;99.90
52016;DHT22;38032;53.326;6.472;2022-09-25T04:28:10;12.00;99.90
52016;DHT22;38032;53.326;6.472;2022-09-25T04:30:35;12.10;99.90
52016;DHT22;38032;53.326;6.472;2022-09-25T04:33:01;12.00;99.90
52016;DHT22;38032;53.326;6.472;2022-09-25T04:35:54;12.00;99.90
52016;DHT22;38032;53.326;6.472;2022-09-25T04:38:20;12.00;99.90
52016;DHT22;38032;53.326;6.472;2022-09-25T04:40:46;12.00;99.90
52016;DHT22;38032;53.326;6.472;2022-09-25T04:43:12;12.00;99.90
52016;DHT22;38032;53.326;6.472;2022-09-25T04:45:38;12.00;99.90
52016;DHT22;38032;53.326;6.472;2022-09-25T04:48:04;12.00;99.90
52016;DHT22;38032;53.326;6.472;2022-09-25T04:50:30;12.00;99.90
52016;DHT22;38032;53.326;6.472;2022-09-25T04:52:57;12.00;99.90
52016;DHT22;38032;53.326;6.472;2022-09-25T04:55:23;12.00;99.90
52016;DHT22;38032;53.326;6.472;2022-09-25T04:57:51;12.00;99.90
52016;DHT22;38032;53.326;6.472;2022-09-25T05:00:18;12.00;99.90
52016;DHT22;38032;53.326;6.472;2022-09-25T05:02:45;12.00;99.90
52016;DHT22;38032;53.326;6.472;2022-09-25T05:05:10;12.00;99.90
52016;DHT22;38032;53.326;6.472;2022-09-25T05:07:36;12.00;99.90
52016;DHT22;38032;53.326;6.472;2022-09-25T05:10:05;12.00;99.90
52016;DHT22;38032;53.326;6.472;2022-09-25T05:12:33;11.90;99.90
52016;DHT22;38032;53.326;6.472;2022-09-25T05:14:59;12.00;99.90
52016;DHT22;38032;53.326;6.472;2022-09-25T05:17:24;11.90;99.90
52016;DHT22;38032;53.326;6.472;2022-09-25T05:19:50;11.90;99.90
52016;DHT22;38032;53.326;6.472;2022-09-25T05:22:16;11.90;99.90
52016;DHT22;38032;53.326;6.472;2022-09-25T05:24:42;11.90;99.90
52016;DHT22;38032;53.326;6.472;2022-09-25T05:27:07;11.90;99.90
52016;DHT22;38032;53.326;6.472;2022-09-25T05:29:33;11.90;99.90
52016;DHT22;38032;53.326;6.472;2022-09-25T05:31:59;11.80;99.90
52016;DHT22;38032;53.326;6.472;2022-09-25T05:34:25;11.80;99.90
52016;DHT22;38032;53.326;6.472;2022-09-25T05:36:51;11.70;99.90
52016;DHT22;38032;53.326;6.472;2022-09-25T05:39:17;11.70;99.90
52016;DHT22;38032;53.326;6.472;2022-09-25T05:41:42;11.60;99.90
52016;DHT22;38032;53.326;6.472;2022-09-25T05:44:08;11.50;99.90
52016;DHT22;38032;53.326;6.472;2022-09-25T05:46:35;11.50;99.90
52016;DHT22;38032;53.326;6.472;2022-09-25T05:49:01;11.50;99.90
52016;DHT22;38032;53.326;6.472;2022-09-25T05:51:27;11.40;99.90
52016;DHT22;38032;53.326;6.472;2022-09-25T05:53:54;11.40;99.90
52016;DHT22;38032;53.326;6.472;2022-09-25T05:56:21;11.40;99.90
52016;DHT22;38032;53.326;6.472;2022-09-25T05:58:50;11.40;99.90
52016;DHT22;38032;53.326;6.472;2022-09-25T06:01:15;11.40;99.90
52016;DHT22;38032;53.326;6.472;2022-09-25T06:03:41;11.30;99.90
52016;DHT22;38032;53.326;6.472;2022-09-25T06:06:07;11.30;99.90
52016;DHT22;38032;53.326;6.472;2022-09-25T06:08:33;11.30;99.90
52016;DHT22;38032;53.326;6.472;2022-09-25T06:11:00;11.20;99.90
52016;DHT22;38032;53.326;6.472;2022-09-25T06:13:27;11.20;99.90
52016;DHT22;38032;53.326;6.472;2022-09-25T06:15:54;11.20;99.90
52016;DHT22;38032;53.326;6.472;2022-09-25T06:18:23;11.20;99.90
52016;DHT22;38032;53.326;6.472;2022-09-25T06:20:49;11.20;99.90
52016;DHT22;38032;53.326;6.472;2022-09-25T06:23:16;11.20;99.90
52016;DHT22;38032;53.326;6.472;2022-09-25T06:25:44;11.20;99.90
52016;DHT22;38032;53.326;6.472;2022-09-25T06:28:10;11.20;99.90
52016;DHT22;38032;53.326;6.472;2022-09-25T06:30:37;11.20;99.90
52016;DHT22;38032;53.326;6.472;2022-09-25T06:33:06;11.20;99.90
52016;DHT22;38032;53.326;6.472;2022-09-25T06:35:35;11.20;99.90
52016;DHT22;38032;53.326;6.472;2022-09-25T06:38:02;11.20;99.90
52016;DHT22;38032;53.326;6.472;2022-09-25T06:40:29;11.20;99.90
52016;DHT22;38032;53.326;6.472;2022-09-25T06:42:56;11.30;99.90
52016;DHT22;38032;53.326;6.472;2022-09-25T06:45:22;11.30;99.90
52016;DHT22;38032;53.326;6.472;2022-09-25T06:47:49;11.30;99.90
52016;DHT22;38032;53.326;6.472;2022-09-25T06:50:14;11.40;99.90
52016;DHT22;38032;53.326;6.472;2022-09-25T06:52:42;11.50;99.90
52016;DHT22;38032;53.326;6.472;2022-09-25T06:55:08;11.50;99.90
52016;DHT22;38032;53.326;6.472;2022-09-25T06:57:33;11.50;99.90
52016;DHT22;38032;53.326;6.472;2022-09-25T07:00:03;11.60;99.90
52016;DHT22;38032;53.326;6.472;2022-09-25T07:02:30;11.60;99.90
52016;DHT22;38032;53.326;6.472;2022-09-25T07:05:14;11.70;99.90
52016;DHT22;38032;53.326;6.472;2022-09-25T07:07:40;11.80;99.90
52016;DHT22;38032;53.326;6.472;2022-09-25T07:10:08;11.90;99.90
52016;DHT22;38032;53.326;6.472;2022-09-25T07:12:34;12.10;99.90
52016;DHT22;38032;53.326;6.472;2022-09-25T07:15:00;12.30;99.90
52016;DHT22;38032;53.326;6.472;2022-09-25T07:17:26;12.50;99.90
52016;DHT22;38032;53.326;6.472;2022-09-25T07:19:51;12.70;99.90
52016;DHT22;38032;53.326;6.472;2022-09-25T07:22:17;12.90;99.90
52016;DHT22;38032;53.326;6.472;2022-09-25T07:24:43;12.80;99.90
52016;DHT22;38032;53.326;6.472;2022-09-25T07:27:09;12.90;99.90
52016;DHT22;38032;53.326;6.472;2022-09-25T07:29:35;12.90;99.90
52016;DHT22;38032;53.326;6.472;2022-09-25T07:32:01;12.90;99.90
52016;DHT22;38032;53.326;6.472;2022-09-25T07:34:27;12.90;99.90
52016;DHT22;38032;53.326;6.472;2022-09-25T07:36:52;12.90;99.90
52016;DHT22;38032;53.326;6.472;2022-09-25T07:39:19;12.90;99.90
52016;DHT22;38032;53.326;6.472;2022-09-25T07:41:45;13.00;99.90
52016;DHT22;38032;53.326;6.472;2022-09-25T07:44:12;13.10;99.90
52016;DHT22;38032;53.326;6.472;2022-09-25T07:46:37;13.20;99.90
52016;DHT22;38032;53.326;6.472;2022-09-25T07:49:08;13.30;99.90
52016;DHT22;38032;53.326;6.472;2022-09-25T07:51:34;13.40;99.90
52016;DHT22;38032;53.326;6.472;2022-09-25T07:54:00;13.50;99.90
52016;DHT22;38032;53.326;6.472;2022-09-25T07:56:25;13.60;99.90
52016;DHT22;38032;53.326;6.472;2022-09-25T07:58:52;13.80;99.90
52016;DHT22;38032;53.326;6.472;2022-09-25T08:01:18;13.90;99.90
52016;DHT22;38032;53.326;6.472;2022-09-25T08:03:44;14.00;99.90
52016;DHT22;38032;53.326;6.472;2022-09-25T08:06:11;14.00;99.90
52016;DHT22;38032;53.326;6.472;2022-09-25T08:08:39;14.00;99.90
52016;DHT22;38032;53.326;6.472;2022-09-25T08:11:07;14.00;99.90
52016;DHT22;38032;53.326;6.472;2022-09-25T08:13:34;14.00;99.90
52016;DHT22;38032;53.326;6.472;2022-09-25T08:16:04;14.00;99.90
52016;DHT22;38032;53.326;6.472;2022-09-25T08:18:30;13.90;99.90
52016;DHT22;38032;53.326;6.472;2022-09-25T08:21:01;13.90;99.90
52016;DHT22;38032;53.326;6.472;2022-09-25T08:23:27;13.80;99.90
52016;DHT22;38032;53.326;6.472;2022-09-25T08:25:53;13.80;99.90
52016;DHT22;38032;53.326;6.472;2022-09-25T08:28:19;13.70;99.90
52016;DHT22;38032;53.326;6.472;2022-09-25T08:30:45;13.60;99.90
52016;DHT22;38032;53.326;6.472;2022-09-25T08:33:12;13.60;99.90
52016;DHT22;38032;53.326;6.472;2022-09-25T08:35:38;13.50;99.90
52016;DHT22;38032;53.326;6.472;2022-09-25T08:38:07;13.50;99.90
52016;DHT22;38032;53.326;6.472;2022-09-25T08:40:37;13.40;99.90
52016;DHT22;38032;53.326;6.472;2022-09-25T08:43:03;13.40;99.90
52016;DHT22;38032;53.326;6.472;2022-09-25T08:45:36;13.40;99.90
52016;DHT22;38032;53.326;6.472;2022-09-25T08:48:28;13.40;99.90
52016;DHT22;38032;53.326;6.472;2022-09-25T08:51:16;13.40;99.90
52016;DHT22;38032;53.326;6.472;2022-09-25T08:53:42;13.40;99.90
52016;DHT22;38032;53.326;6.472;2022-09-25T08:56:12;13.50;99.90
52016;DHT22;38032;53.326;6.472;2022-09-25T08:58:44;13.50;99.90
52016;DHT22;38032;53.326;6.472;2022-09-25T09:01:19;13.60;99.90
52016;DHT22;38032;53.326;6.472;2022-09-25T09:03:50;13.70;99.90
52016;DHT22;38032;53.326;6.472;2022-09-25T09:06:17;13.80;99.90
52016;DHT22;38032;53.326;6.472;2022-09-25T09:08:49;13.90;99.90
52016;DHT22;38032;53.326;6.472;2022-09-25T09:11:29;14.00;99.90
52016;DHT22;38032;53.326;6.472;2022-09-25T09:14:03;14.10;99.90
52016;DHT22;38032;53.326;6.472;2022-09-25T09:16:40;14.20;99.90
52016;DHT22;38032;53.326;6.472;2022-09-25T09:19:09;14.40;99.90
52016;DHT22;38032;53.326;6.472;2022-09-25T09:21:40;14.50;99.90
52016;DHT22;38032;53.326;6.472;2022-09-25T09:24:16;14.70;99.90
52016;DHT22;38032;53.326;6.472;2022-09-25T09:27:31;15.10;99.90
52016;DHT22;38032;53.326;6.472;2022-09-25T09:30:09;15.40;99.90
52016;DHT22;38032;53.326;6.472;2022-09-25T09:32:49;15.60;99.90
52016;DHT22;38032;53.326;6.472;2022-09-25T09:35:35;15.80;99.90
52016;DHT22;38032;53.326;6.472;2022-09-25T09:41:00;17.60;99.90
52016;DHT22;38032;53.326;6.472;2022-09-25T09:43:48;18.20;99.90
52016;DHT22;38032;53.326;6.472;2022-09-25T09:46:36;18.40;99.90
52016;DHT22;38032;53.326;6.472;2022-09-25T09:49:18;18.60;99.90
52016;DHT22;38032;53.326;6.472;2022-09-25T09:51:52;18.60;99.90
52016;DHT22;38032;53.326;6.472;2022-09-25T09:54:35;18.70;99.90
52016;DHT22;38032;53.326;6.472;2022-09-25T09:57:07;18.70;99.90
52016;DHT22;38032;53.326;6.472;2022-09-25T09:59:44;18.60;99.90
52016;DHT22;38032;53.326;6.472;2022-09-25T10:04:48;18.40;99.90
52016;DHT22;38032;53.326;6.472;2022-09-25T10:07:17;18.40;99.90
52016;DHT22;38032;53.326;6.472;2022-09-25T10:09:44;18.50;99.90
52016;DHT22;38032;53.326;6.472;2022-09-25T10:12:18;18.60;99.90
52016;DHT22;38032;53.326;6.472;2022-09-25T10:14:49;18.70;99.90
52016;DHT22;38032;53.326;6.472;2022-09-25T10:17:15;18.80;99.90
52016;DHT22;38032;53.326;6.472;2022-09-25T10:19:50;19.30;99.90
52016;DHT22;38032;53.326;6.472;2022-09-25T10:22:20;20.10;99.90
52016;DHT22;38032;53.326;6.472;2022-09-25T10:24:59;20.50;98.70
52016;DHT22;38032;53.326;6.472;2022-09-25T10:27:36;20.50;97.10
52016;DHT22;38032;53.326;6.472;2022-09-25T10:30:04;20.30;95.10
52016;DHT22;38032;53.326;6.472;2022-09-25T10:32:33;20.20;94.40
52016;DHT22;38032;53.326;6.472;2022-09-25T10:35:00;20.10;94.20
52016;DHT22;38032;53.326;6.472;2022-09-25T10:37:31;20.20;94.40
52016;DHT22;38032;53.326;6.472;2022-09-25T10:40:05;20.30;95.30
52016;DHT22;38032;53.326;6.472;2022-09-25T10:42:41;20.40;94.70
52016;DHT22;38032;53.326;6.472;2022-09-25T10:45:29;20.60;94.90
52016;DHT22;38032;53.326;6.472;2022-09-25T10:47:55;21.10;94.40
52016;DHT22;38032;53.326;6.472;2022-09-25T10:50:40;21.30;94.00
52016;DHT22;38032;53.326;6.472;2022-09-25T10:53:23;21.30;93.50
52016;DHT22;38032;53.326;6.472;2022-09-25T10:56:07;21.30;93.30
52016;DHT22;38032;53.326;6.472;2022-09-25T10:58:41;21.30;92.30
52016;DHT22;38032;53.326;6.472;2022-09-25T11:01:09;21.30;92.20
52016;DHT22;38032;53.326;6.472;2022-09-25T11:03:52;21.20;92.40
52016;DHT22;38032;53.326;6.472;2022-09-25T11:06:25;21.00;92.30
52016;DHT22;38032;53.326;6.472;2022-09-25T11:09:06;20.80;92.50
52016;DHT22;38032;53.326;6.472;2022-09-25T11:11:34;20.70;92.70
52016;DHT22;38032;53.326;6.472;2022-09-25T11:14:04;20.60;92.60
52016;DHT22;38032;53.326;6.472;2022-09-25T11:16:51;20.50;92.30
52016;DHT22;38032;53.326;6.472;2022-09-25T11:19:25;20.40;93.00
52016;DHT22;38032;53.326;6.472;2022-09-25T11:22:06;20.30;93.40
52016;DHT22;38032;53.326;6.472;2022-09-25T11:27:09;20.00;94.10
52016;DHT22;38032;53.326;6.472;2022-09-25T11:29:50;19.80;94.90
52016;DHT22;38032;53.326;6.472;2022-09-25T11:40:25;19.20;97.90
52016;DHT22;38032;53.326;6.472;2022-09-25T11:43:17;19.00;98.30
52016;DHT22;38032;53.326;6.472;2022-09-25T11:45:53;18.90;98.80
52016;DHT22;38032;53.326;6.472;2022-09-25T11:48:38;18.70;99.40
52016;DHT22;38032;53.326;6.472;2022-09-25T11:51:27;18.60;99.90
52016;DHT22;38032;53.326;6.472;2022-09-25T11:57:00;18.30;99.90
52016;DHT22;38032;53.326;6.472;2022-09-25T12:02:17;18.10;99.90
52016;DHT22;38032;53.326;6.472;2022-09-25T12:13:03;17.70;99.90
52016;DHT22;38032;53.326;6.472;2022-09-25T12:16:07;17.60;99.90
52016;DHT22;38032;53.326;6.472;2022-09-25T12:18:50;17.60;99.90
52016;DHT22;38032;53.326;6.472;2022-09-25T12:21:26;17.50;99.90
52016;DHT22;38032;53.326;6.472;2022-09-25T12:24:20;17.40;99.90
52016;DHT22;38032;53.326;6.472;2022-09-25T12:29:54;17.30;99.90
52016;DHT22;38032;53.326;6.472;2022-09-25T12:35:08;17.40;99.90
52016;DHT22;38032;53.326;6.472;2022-09-25T12:37:42;17.40;99.90
52016;DHT22;38032;53.326;6.472;2022-09-25T12:40:18;17.50;99.90
52016;DHT22;38032;53.326;6.472;2022-09-25T12:42:59;17.50;99.90
52016;DHT22;38032;53.326;6.472;2022-09-25T12:45:48;17.60;99.90
52016;DHT22;38032;53.326;6.472;2022-09-25T12:48:23;17.70;99.90
52016;DHT22;38032;53.326;6.472;2022-09-25T12:50:59;17.80;99.90
52016;DHT22;38032;53.326;6.472;2022-09-25T12:53:32;17.80;99.90
52016;DHT22;38032;53.326;6.472;2022-09-25T12:56:09;17.80;99.90
52016;DHT22;38032;53.326;6.472;2022-09-25T12:59:00;17.80;99.90
52016;DHT22;38032;53.326;6.472;2022-09-25T13:01:42;17.90;99.90
52016;DHT22;38032;53.326;6.472;2022-09-25T13:06:51;18.00;99.90
52016;DHT22;38032;53.326;6.472;2022-09-25T13:09:33;18.00;99.90
52016;DHT22;38032;53.326;6.472;2022-09-25T13:12:03;18.00;99.90
52016;DHT22;38032;53.326;6.472;2022-09-25T13:14:51;18.10;99.90
52016;DHT22;38032;53.326;6.472;2022-09-25T13:17:18;18.20;99.90
52016;DHT22;38032;53.326;6.472;2022-09-25T13:19:44;18.20;99.90
52016;DHT22;38032;53.326;6.472;2022-09-25T13:22:19;18.30;99.90
52016;DHT22;38032;53.326;6.472;2022-09-25T13:25:03;18.40;99.90
52016;DHT22;38032;53.326;6.472;2022-09-25T13:27:41;18.50;99.90
52016;DHT22;38032;53.326;6.472;2022-09-25T13:30:20;18.50;99.90
52016;DHT22;38032;53.326;6.472;2022-09-25T13:32:48;18.50;99.90
52016;DHT22;38032;53.326;6.472;2022-09-25T13:35:17;18.50;98.50
52016;DHT22;38032;53.326;6.472;2022-09-25T13:37:44;18.50;98.00
52016;DHT22;38032;53.326;6.472;2022-09-25T13:40:17;18.50;97.40
52016;DHT22;38032;53.326;6.472;2022-09-25T13:43:19;18.50;97.30
52016;DHT22;38032;53.326;6.472;2022-09-25T13:45:47;18.50;98.00
52016;DHT22;38032;53.326;6.472;2022-09-25T14:01:46;18.70;97.60
52016;DHT22;38032;53.326;6.472;2022-09-25T14:06:39;18.80;97.20
52016;DHT22;38032;53.326;6.472;2022-09-25T14:09:16;18.90;96.90
52016;DHT22;38032;53.326;6.472;2022-09-25T14:12:22;18.90;96.60
52016;DHT22;38032;53.326;6.472;2022-09-25T14:14:42;18.90;96.10
52016;DHT22;38032;53.326;6.472;2022-09-25T14:17:16;18.80;96.40
52016;DHT22;38032;53.326;6.472;2022-09-25T14:19:51;18.90;96.20
52016;DHT22;38032;53.326;6.472;2022-09-25T14:24:45;18.90;95.60
52016;DHT22;38032;53.326;6.472;2022-09-25T14:27:20;18.90;95.90
52016;DHT22;38032;53.326;6.472;2022-09-25T14:29:46;18.90;95.60
52016;DHT22;38032;53.326;6.472;2022-09-25T14:38:10;18.80;95.50
52016;DHT22;38032;53.326;6.472;2022-09-25T14:40:49;18.70;95.70
52016;DHT22;38032;53.326;6.472;2022-09-25T14:43:40;18.70;95.30
52016;DHT22;38032;53.326;6.472;2022-09-25T14:46:14;18.60;95.90
52016;DHT22;38032;53.326;6.472;2022-09-25T14:48:59;18.60;94.80
52016;DHT22;38032;53.326;6.472;2022-09-25T14:51:35;18.60;95.00
52016;DHT22;38032;53.326;6.472;2022-09-25T14:54:06;18.50;94.70
52016;DHT22;38032;53.326;6.472;2022-09-25T14:56:32;18.40;94.00
52016;DHT22;38032;53.326;6.472;2022-09-25T14:59:05;18.40;92.90
52016;DHT22;38032;53.326;6.472;2022-09-25T15:01:32;18.30;92.30
52016;DHT22;38032;53.326;6.472;2022-09-25T15:04:01;18.20;91.90
52016;DHT22;38032;53.326;6.472;2022-09-25T15:06:30;18.10;91.50
52016;DHT22;38032;53.326;6.472;2022-09-25T15:08:57;18.00;91.60
52016;DHT22;38032;53.326;6.472;2022-09-25T15:11:25;17.90;91.30
52016;DHT22;38032;53.326;6.472;2022-09-25T15:13:52;17.90;91.30
52016;DHT22;38032;53.326;6.472;2022-09-25T15:16:21;17.80;91.10
52016;DHT22;38032;53.326;6.472;2022-09-25T15:19:19;17.70;91.30
52016;DHT22;38032;53.326;6.472;2022-09-25T15:21:46;17.60;91.70
52016;DHT22;38032;53.326;6.472;2022-09-25T15:24:20;17.50;91.70
52016;DHT22;38032;53.326;6.472;2022-09-25T15:26:51;17.40;92.10
52016;DHT22;38032;53.326;6.472;2022-09-25T15:29:21;17.30;92.50
52016;DHT22;38032;53.326;6.472;2022-09-25T15:31:49;17.30;92.90
52016;DHT22;38032;53.326;6.472;2022-09-25T15:34:24;17.20;93.90
52016;DHT22;38032;53.326;6.472;2022-09-25T15:36:50;17.10;94.60
52016;DHT22;38032;53.326;6.472;2022-09-25T15:39:23;17.10;94.40
52016;DHT22;38032;53.326;6.472;2022-09-25T15:41:52;17.00;94.50
52016;DHT22;38032;53.326;6.472;2022-09-25T15:44:21;16.90;94.90
52016;DHT22;38032;53.326;6.472;2022-09-25T15:46:52;16.90;95.10
52016;DHT22;38032;53.326;6.472;2022-09-25T15:49:25;16.90;95.40
52016;DHT22;38032;53.326;6.472;2022-09-25T15:51:55;16.80;95.60
52016;DHT22;38032;53.326;6.472;2022-09-25T15:54:33;17.00;96.20
52016;DHT22;38032;53.326;6.472;2022-09-25T15:57:03;16.70;96.80
52016;DHT22;38032;53.326;6.472;2022-09-25T15:59:35;16.70;97.60
52016;DHT22;38032;53.326;6.472;2022-09-25T16:02:25;16.70;98.20
52016;DHT22;38032;53.326;6.472;2022-09-25T16:05:13;16.60;98.30
52016;DHT22;38032;53.326;6.472;2022-09-25T16:07:41;16.60;98.50
52016;DHT22;38032;53.326;6.472;2022-09-25T16:17:54;16.20;99.60
52016;DHT22;38032;53.326;6.472;2022-09-25T16:22:50;16.20;99.90
52016;DHT22;38032;53.326;6.472;2022-09-25T16:25:26;16.10;99.90
52016;DHT22;38032;53.326;6.472;2022-09-25T16:27:58;16.10;99.90
52016;DHT22;38032;53.326;6.472;2022-09-25T16:30:26;16.00;99.90
52016;DHT22;38032;53.326;6.472;2022-09-25T16:32:55;15.90;99.90
52016;DHT22;38032;53.326;6.472;2022-09-25T16:35:30;15.90;99.90
52016;DHT22;38032;53.326;6.472;2022-09-25T16:37:59;15.90;99.90
52016;DHT22;38032;53.326;6.472;2022-09-25T16:40:28;15.80;99.90
52016;DHT22;38032;53.326;6.472;2022-09-25T16:42:58;15.80;99.90
52016;DHT22;38032;53.326;6.472;2022-09-25T16:45:29;15.70;99.90
52016;DHT22;38032;53.326;6.472;2022-09-25T16:50:42;15.70;99.90
52016;DHT22;38032;53.326;6.472;2022-09-25T16:53:08;15.70;99.90
52016;DHT22;38032;53.326;6.472;2022-09-25T16:55:44;15.60;99.90
52016;DHT22;38032;53.326;6.472;2022-09-25T16:58:11;15.60;99.90
52016;DHT22;38032;53.326;6.472;2022-09-25T17:00:38;15.60;99.90
52016;DHT22;38032;53.326;6.472;2022-09-25T17:03:04;15.50;99.90
52016;DHT22;38032;53.326;6.472;2022-09-25T17:05:30;15.50;99.90
52016;DHT22;38032;53.326;6.472;2022-09-25T17:07:59;15.50;99.90
52016;DHT22;38032;53.326;6.472;2022-09-25T17:10:28;15.50;99.90
52016;DHT22;38032;53.326;6.472;2022-09-25T17:12:59;15.40;99.90
52016;DHT22;38032;53.326;6.472;2022-09-25T17:15:28;15.40;99.90
52016;DHT22;38032;53.326;6.472;2022-09-25T17:17:57;15.40;99.90
52016;DHT22;38032;53.326;6.472;2022-09-25T17:20:25;15.30;99.90
52016;DHT22;38032;53.326;6.472;2022-09-25T17:22:53;15.30;99.90
52016;DHT22;38032;53.326;6.472;2022-09-25T17:25:39;15.20;99.90
52016;DHT22;38032;53.326;6.472;2022-09-25T17:28:08;15.20;99.90